createdAt,value
2022-08-07T00:01:44.015Z,20.80
2022-08-07T00:04:06.780Z,20.91
2022-08-07T00:06:36.673Z,20.98
2022-08-07T00:09:17.018Z,20.93
2022-08-07T00:11:55.787Z,20.98
2022-08-07T00:14:25.497Z,20.97
2022-08-07T00:17:01.595Z,21.00
2022-08-07T00:20:00.689Z,21.08
2022-08-07T00:22:24.459Z,21.10
2022-08-07T00:25:11.118Z,21.20
2022-08-07T00:27:53.512Z,21.14
2022-08-07T00:30:28.086Z,21.14
2022-08-07T00:32:59.940Z,21.29
2022-08-07T00:35:30.525Z,21.10
2022-08-07T00:38:00.756Z,21.12
2022-08-07T00:40:39.194Z,21.13
2022-08-07T00:43:09.694Z,21.18
2022-08-07T00:45:41.583Z,21.11
2022-08-07T00:48:13.665Z,20.98
2022-08-07T00:50:50.887Z,20.91
2022-08-07T00:53:20.568Z,20.87
2022-08-07T00:56:00.678Z,20.91
2022-08-07T00:58:31.346Z,20.95
2022-08-07T01:00:58.981Z,20.88
2022-08-07T01:03:57.235Z,20.89
2022-08-07T01:06:13.346Z,20.84
2022-08-07T01:08:43.194Z,20.78
2022-08-07T01:12:09.263Z,20.80
2022-08-07T01:14:09.108Z,20.72
2022-08-07T01:16:37.220Z,20.66
2022-08-07T01:19:18.570Z,20.67
2022-08-07T01:21:53.376Z,20.71
2022-08-07T01:24:23.853Z,20.67
2022-08-07T01:26:52.695Z,20.65
2022-08-07T01:29:27.654Z,20.64
2022-08-07T01:31:59.660Z,20.71
2022-08-07T01:34:31.485Z,20.76
2022-08-07T01:37:00.437Z,20.75
2022-08-07T01:39:41.279Z,20.62
2022-08-07T01:42:38.474Z,20.58
2022-08-07T01:45:04.693Z,20.73
2022-08-07T01:48:18.170Z,20.75
2022-08-07T01:50:29.819Z,20.72
2022-08-07T01:53:01.807Z,20.76
2022-08-07T01:55:40.090Z,20.84
2022-08-07T01:58:29.250Z,20.73
2022-08-07T02:01:09.751Z,20.69
2022-08-07T02:03:57.704Z,20.75
2022-08-07T02:06:31.764Z,20.86
2022-08-07T02:09:03.828Z,20.76
2022-08-07T02:12:03.015Z,20.82
2022-08-07T02:14:36.381Z,20.87
2022-08-07T02:17:13.344Z,20.88
2022-08-07T02:20:05.246Z,20.93
2022-08-07T02:22:41.085Z,20.91
2022-08-07T02:25:17.285Z,20.99
2022-08-07T02:27:52.324Z,21.02
2022-08-07T02:30:24.494Z,21.02
2022-08-07T02:33:00.159Z,21.07
2022-08-07T02:36:29.081Z,21.12
2022-08-07T02:38:22.747Z,21.07
2022-08-07T02:40:57.177Z,21.07
2022-08-07T02:43:24.465Z,21.10
2022-08-07T02:45:54.792Z,21.11
2022-08-07T02:48:26.922Z,21.00
2022-08-07T02:50:57.959Z,20.96
2022-08-07T02:53:29.158Z,21.01
2022-08-07T02:56:02.218Z,20.92
2022-08-07T02:58:34.111Z,20.93
2022-08-07T03:01:03.000Z,20.79
2022-08-07T03:03:49.913Z,20.95
2022-08-07T03:06:25.966Z,20.90
2022-08-07T03:09:11.205Z,20.79
2022-08-07T03:11:51.930Z,20.84
2022-08-07T03:14:26.222Z,20.83
2022-08-07T03:16:56.740Z,20.76
2022-08-07T03:19:24.889Z,20.85
2022-08-07T03:21:57.161Z,20.86
2022-08-07T03:24:28.062Z,20.85
2022-08-07T03:27:00.556Z,20.90
2022-08-07T03:29:33.710Z,20.86
2022-08-07T03:32:08.376Z,20.53
2022-08-07T03:34:47.437Z,20.31
2022-08-07T03:37:32.687Z,19.99
2022-08-07T03:40:15.174Z,19.81
2022-08-07T03:42:43.765Z,19.77
2022-08-07T03:45:12.079Z,19.75
2022-08-07T03:48:01.127Z,19.70
2022-08-07T03:50:32.121Z,19.69
2022-08-07T03:53:02.979Z,19.71
2022-08-07T03:55:46.155Z,19.82
2022-08-07T03:59:05.500Z,19.94
2022-08-07T04:01:10.950Z,20.09
2022-08-07T04:03:49.772Z,20.22
2022-08-07T04:06:37.594Z,20.20
2022-08-07T04:09:10.987Z,20.24
2022-08-07T04:12:27.667Z,20.20
2022-08-07T04:14:38.733Z,20.12
2022-08-07T04:17:20.336Z,20.17
2022-08-07T04:19:52.728Z,20.30
2022-08-07T04:22:27.443Z,20.46
2022-08-07T04:25:01.333Z,20.53
2022-08-07T04:27:36.029Z,20.44
2022-08-07T04:30:11.800Z,20.46
2022-08-07T04:32:58.449Z,20.47
2022-08-07T04:35:35.261Z,20.50
2022-08-07T04:38:07.942Z,20.34
2022-08-07T04:40:51.187Z,20.33
2022-08-07T04:44:10.027Z,20.44
2022-08-07T04:46:34.659Z,20.45
2022-08-07T04:49:37.777Z,20.56
2022-08-07T04:52:14.919Z,20.67
2022-08-07T04:55:14.882Z,20.70
2022-08-07T04:58:32.155Z,20.54
2022-08-07T05:01:16.717Z,20.53
2022-08-07T05:04:06.483Z,20.21
2022-08-07T05:06:43.376Z,20.28
2022-08-07T05:09:42.901Z,20.27
2022-08-07T05:12:15.547Z,20.30
2022-08-07T05:15:03.254Z,20.31
2022-08-07T05:17:52.638Z,20.38
2022-08-07T05:20:38.641Z,20.42
2022-08-07T05:23:23.180Z,20.46
2022-08-07T05:26:11.671Z,20.50
2022-08-07T05:28:48.777Z,20.62
2022-08-07T05:31:20.668Z,20.64
2022-08-07T05:34:04.900Z,20.80
2022-08-07T05:36:35.519Z,20.74
2022-08-07T05:40:05.773Z,20.75
2022-08-07T05:42:02.238Z,20.85
2022-08-07T05:44:34.433Z,20.76
2022-08-07T05:47:18.854Z,20.89
2022-08-07T05:49:51.500Z,21.04
2022-08-07T05:52:20.386Z,21.15
2022-08-07T05:54:58.767Z,21.30
2022-08-07T05:57:37.075Z,21.41
2022-08-07T06:00:07.651Z,21.53
2022-08-07T06:02:49.386Z,21.58
2022-08-07T06:05:19.619Z,21.69
2022-08-07T06:08:14.134Z,21.81
2022-08-07T06:10:36.893Z,21.95
2022-08-07T06:13:04.942Z,21.98
2022-08-07T06:15:38.498Z,22.23
2022-08-07T06:18:13.790Z,22.38
2022-08-07T06:20:50.859Z,22.68
2022-08-07T06:24:37.160Z,22.94
2022-08-07T06:26:20.428Z,23.23
2022-08-07T06:28:53.590Z,23.55
2022-08-07T06:31:21.246Z,23.69
2022-08-07T06:34:06.111Z,23.90
2022-08-07T06:36:35.135Z,24.22
2022-08-07T06:40:17.881Z,24.56
2022-08-07T06:42:02.689Z,24.82
2022-08-07T06:44:39.677Z,25.02
2022-08-07T06:47:12.172Z,25.08
2022-08-07T06:49:51.160Z,25.30
2022-08-07T06:52:31.927Z,25.36
2022-08-07T06:55:32.352Z,25.34
2022-08-07T06:58:05.942Z,25.41
2022-08-07T07:00:42.439Z,25.27
2022-08-07T07:03:14.376Z,25.12
2022-08-07T07:06:02.740Z,24.95
2022-08-07T07:08:33.945Z,24.76
2022-08-07T07:11:13.508Z,24.40
2022-08-07T07:13:58.312Z,24.16
2022-08-07T07:16:31.490Z,22.62
2022-08-07T07:19:40.930Z,22.69
2022-08-07T07:22:11.870Z,22.89
2022-08-07T07:24:43.223Z,22.72
2022-08-07T07:27:35.670Z,22.97
2022-08-07T07:30:32.794Z,22.07
2022-08-07T07:33:04.019Z,22.69
2022-08-07T07:35:44.144Z,23.02
2022-08-07T07:38:23.741Z,23.29
2022-08-07T07:40:52.329Z,23.45
2022-08-07T07:43:27.764Z,23.55
2022-08-07T07:46:53.180Z,22.97
2022-08-07T07:49:00.016Z,23.28
2022-08-07T07:51:58.406Z,23.84
2022-08-07T07:54:24.499Z,24.15
2022-08-07T07:56:55.558Z,24.41
2022-08-07T07:59:52.592Z,24.55
2022-08-07T08:02:22.520Z,24.82
2022-08-07T08:05:14.512Z,25.20
2022-08-07T08:07:51.825Z,25.81
2022-08-07T08:10:35.689Z,26.10
2022-08-07T08:13:06.585Z,26.51
2022-08-07T08:15:43.661Z,26.56
2022-08-07T08:18:27.930Z,26.72
2022-08-07T08:20:58.281Z,27.08
2022-08-07T08:23:43.804Z,27.35
2022-08-07T08:26:52.400Z,27.60
2022-08-07T08:29:20.117Z,27.77
2022-08-07T08:31:58.892Z,27.97
2022-08-07T08:34:39.394Z,28.19
2022-08-07T08:37:09.845Z,28.29
2022-08-07T08:39:39.314Z,28.29
2022-08-07T08:42:27.306Z,27.97
2022-08-07T08:45:26.656Z,27.17
2022-08-07T08:48:32.395Z,27.50
2022-08-07T08:52:00.859Z,27.61
2022-08-07T08:54:36.794Z,27.75
2022-08-07T08:57:08.600Z,27.95
2022-08-07T08:59:57.294Z,28.07
2022-08-07T09:02:49.665Z,28.21
2022-08-07T09:05:36.711Z,28.50
2022-08-07T09:08:10.635Z,28.60
2022-08-07T09:10:45.166Z,28.72
2022-08-07T09:13:36.997Z,29.12
2022-08-07T09:16:29.698Z,29.87
2022-08-07T09:19:51.000Z,29.77
2022-08-07T09:24:28.695Z,30.21
2022-08-07T09:25:28.000Z,29.76
2022-08-07T09:30:03.265Z,30.88
2022-08-07T09:30:57.795Z,30.11
2022-08-07T09:33:40.847Z,29.16
2022-08-07T09:36:37.382Z,29.93
2022-08-07T09:39:55.488Z,29.87
2022-08-07T09:42:32.989Z,31.77
2022-08-07T09:47:23.619Z,31.39
2022-08-07T09:48:49.987Z,29.37
2022-08-07T09:52:15.266Z,29.85
2022-08-07T09:54:40.853Z,31.11
2022-08-07T09:57:30.046Z,31.34
2022-08-07T10:00:14.544Z,30.87
2022-08-07T10:04:03.019Z,30.46
2022-08-07T10:06:24.360Z,31.98
2022-08-07T10:09:23.613Z,31.77
2022-08-07T10:12:26.350Z,31.35
2022-08-07T10:15:19.939Z,30.02
2022-08-07T10:18:28.170Z,31.15
2022-08-07T10:21:14.927Z,32.13
2022-08-07T10:24:23.431Z,32.24
2022-08-07T10:27:23.083Z,30.81
2022-08-07T10:30:16.651Z,32.20
2022-08-07T10:32:53.783Z,31.50
2022-08-07T10:35:55.723Z,31.36
2022-08-07T10:38:54.105Z,31.79
2022-08-07T10:41:51.696Z,31.51
2022-08-07T10:44:37.987Z,31.46
2022-08-07T10:47:26.947Z,31.20
2022-08-07T10:50:28.793Z,31.31
2022-08-07T10:53:08.255Z,31.82
2022-08-07T10:55:45.975Z,32.32
2022-08-07T10:58:31.995Z,32.48
2022-08-07T11:01:35.483Z,32.73
2022-08-07T11:04:34.730Z,32.64
2022-08-07T11:07:56.527Z,33.24
2022-08-07T11:10:07.174Z,33.76
2022-08-07T11:12:43.447Z,30.20
2022-08-07T11:15:17.505Z,30.16
2022-08-07T11:17:50.426Z,31.15
2022-08-07T11:20:40.536Z,31.19
2022-08-07T11:23:26.370Z,30.14
2022-08-07T11:26:27.049Z,30.29
2022-08-07T11:29:13.287Z,30.53
2022-08-07T11:32:01.435Z,30.50
2022-08-07T11:34:43.717Z,30.24
2022-08-07T11:37:38.505Z,29.59
2022-08-07T11:40:42.267Z,30.07
2022-08-07T11:43:41.353Z,30.36
2022-08-07T11:46:34.300Z,30.53
2022-08-07T11:50:18.730Z,30.39
2022-08-07T11:52:50.343Z,30.40
2022-08-07T11:56:19.809Z,30.86
2022-08-07T11:58:33.735Z,31.19
2022-08-07T12:01:09.689Z,31.12
2022-08-07T12:03:47.832Z,30.57
2022-08-07T12:06:56.317Z,30.60
2022-08-07T12:09:36.492Z,30.32
2022-08-07T12:12:12.112Z,30.92
2022-08-07T12:15:00.286Z,31.46
2022-08-07T12:17:59.247Z,31.76
2022-08-07T12:20:41.766Z,31.58
2022-08-07T12:24:05.711Z,31.00
2022-08-07T12:26:29.866Z,30.72
2022-08-07T12:29:09.118Z,30.48
2022-08-07T12:31:52.957Z,30.86
2022-08-07T12:34:32.743Z,30.79
2022-08-07T12:37:00.919Z,30.42
2022-08-07T12:39:42.772Z,30.20
2022-08-07T12:42:13.274Z,29.87
2022-08-07T12:44:45.982Z,30.05
2022-08-07T12:47:31.856Z,29.90
2022-08-07T12:50:39.850Z,30.02
2022-08-07T12:53:24.319Z,30.19
2022-08-07T12:56:10.502Z,30.28
2022-08-07T12:58:43.974Z,29.24
2022-08-07T13:01:19.635Z,29.56
2022-08-07T13:04:19.016Z,29.67
2022-08-07T13:08:12.931Z,29.29
2022-08-07T13:10:51.586Z,29.07
2022-08-07T13:13:48.262Z,29.41
2022-08-07T13:16:25.081Z,29.65
2022-08-07T13:19:35.194Z,29.13
2022-08-07T13:22:31.184Z,29.41
2022-08-07T13:25:03.685Z,29.69
2022-08-07T13:28:11.504Z,30.00
2022-08-07T13:30:40.017Z,30.55
2022-08-07T13:34:33.090Z,30.90
2022-08-07T13:36:26.689Z,30.80
2022-08-07T13:39:12.737Z,29.82
2022-08-07T13:41:54.661Z,30.05
2022-08-07T13:44:26.399Z,30.43
2022-08-07T13:47:00.299Z,30.77
2022-08-07T13:50:34.121Z,30.88
2022-08-07T13:52:32.019Z,30.70
2022-08-07T13:55:07.435Z,29.60
2022-08-07T13:57:39.621Z,29.76
2022-08-07T14:00:50.355Z,30.00
2022-08-07T14:03:29.062Z,30.60
2022-08-07T14:06:12.753Z,30.64
2022-08-07T14:08:44.318Z,30.52
2022-08-07T14:11:19.128Z,30.70
2022-08-07T14:13:55.889Z,30.84
2022-08-07T14:16:31.471Z,30.79
2022-08-07T14:19:00.963Z,30.63
2022-08-07T14:22:02.318Z,30.98
2022-08-07T14:24:42.390Z,31.26
2022-08-07T14:27:16.078Z,31.43
2022-08-07T14:30:11.332Z,30.82
2022-08-07T14:32:43.047Z,30.53
2022-08-07T14:35:15.222Z,31.11
2022-08-07T14:38:05.978Z,30.95
2022-08-07T14:40:35.396Z,30.98
2022-08-07T14:43:58.428Z,31.29
2022-08-07T14:46:03.999Z,31.17
2022-08-07T14:48:33.435Z,31.32
2022-08-07T14:51:15.787Z,31.27
2022-08-07T14:54:05.667Z,30.97
2022-08-07T14:56:32.567Z,31.02
2022-08-07T14:59:04.529Z,31.46
2022-08-07T15:04:40.001Z,31.67
2022-08-07T15:07:23.774Z,31.28
2022-08-07T15:13:18.293Z,31.35
2022-08-07T15:15:52.478Z,31.69
2022-08-07T15:18:29.518Z,31.47
2022-08-07T15:21:08.150Z,31.34
2022-08-07T15:25:02.801Z,30.39
2022-08-07T15:26:28.639Z,30.56
2022-08-07T15:30:06.372Z,30.63
2022-08-07T15:32:01.876Z,30.53
2022-08-07T15:34:56.816Z,30.67
2022-08-07T15:37:28.326Z,30.45
2022-08-07T15:39:59.329Z,30.38
2022-08-07T15:48:36.064Z,30.35
2022-08-07T15:54:12.848Z,30.34
2022-08-07T15:56:41.628Z,30.25
2022-08-07T15:59:16.284Z,30.36
2022-08-07T16:02:02.352Z,30.56
2022-08-07T16:04:32.116Z,30.39
2022-08-07T16:07:04.545Z,30.33
2022-08-07T16:09:41.854Z,30.28
2022-08-07T16:12:29.164Z,30.10
2022-08-07T16:15:55.612Z,30.25
2022-08-07T16:18:49.848Z,30.39
2022-08-07T16:22:01.784Z,30.58
2022-08-07T16:24:34.562Z,30.64
2022-08-07T16:27:25.626Z,30.59
2022-08-07T16:30:31.498Z,30.74
2022-08-07T16:34:01.549Z,30.82
2022-08-07T16:36:20.882Z,30.81
2022-08-07T16:39:00.675Z,30.85
2022-08-07T16:42:12.470Z,30.86
2022-08-07T16:45:15.501Z,30.87
2022-08-07T16:48:27.757Z,30.90
2022-08-07T16:51:54.470Z,30.64
2022-08-07T16:54:34.651Z,30.41
2022-08-07T16:58:00.663Z,30.35
2022-08-07T17:00:15.277Z,30.08
2022-08-07T17:03:04.827Z,29.97
2022-08-07T17:06:02.129Z,30.02
2022-08-07T17:09:09.684Z,29.96
2022-08-07T17:12:01.940Z,30.06
2022-08-07T17:14:42.688Z,29.97
2022-08-07T17:17:24.833Z,30.01
2022-08-07T17:20:31.834Z,29.96
2022-08-07T17:23:12.994Z,29.58
2022-08-07T17:26:02.213Z,29.43
2022-08-07T17:29:04.964Z,29.42
2022-08-07T17:31:44.177Z,29.38
2022-08-07T17:34:36.767Z,29.39
2022-08-07T17:38:11.348Z,29.19
2022-08-07T17:40:31.981Z,29.15
2022-08-07T17:43:15.075Z,29.17
2022-08-07T17:45:56.659Z,29.01
2022-08-07T17:48:30.867Z,29.14
2022-08-07T17:51:01.667Z,29.14
2022-08-07T17:54:00.710Z,29.18
2022-08-07T17:56:29.699Z,29.21
2022-08-07T17:58:58.431Z,29.19
2022-08-07T18:01:37.240Z,29.07
2022-08-07T18:04:22.501Z,29.05
2022-08-07T18:07:20.638Z,28.93
2022-08-07T18:10:06.062Z,28.87
2022-08-07T18:12:51.639Z,28.76
2022-08-07T18:15:24.129Z,28.79
2022-08-07T18:18:39.813Z,28.83
2022-08-07T18:21:29.626Z,28.78
2022-08-07T18:24:34.363Z,28.75
2022-08-07T18:27:20.977Z,28.81
2022-08-07T18:30:32.297Z,28.72
2022-08-07T18:33:27.970Z,28.72
2022-08-07T18:36:14.850Z,28.76
2022-08-07T18:40:06.961Z,28.62
2022-08-07T18:42:30.642Z,28.62
2022-08-07T18:45:43.219Z,28.47
2022-08-07T18:50:03.392Z,28.34
2022-08-07T18:52:37.995Z,28.07
2022-08-07T18:54:49.781Z,27.80
2022-08-07T18:57:59.459Z,27.45
2022-08-07T19:00:55.135Z,27.22
2022-08-07T19:03:38.143Z,27.16
2022-08-07T19:06:16.179Z,26.83
2022-08-07T19:09:00.404Z,26.95
2022-08-07T19:11:37.335Z,27.05
2022-08-07T19:14:26.245Z,26.88
2022-08-07T19:17:07.790Z,26.92
2022-08-07T19:20:01.299Z,26.94
2022-08-07T19:22:52.113Z,26.90
2022-08-07T19:26:25.178Z,26.90
2022-08-07T19:28:58.268Z,26.83
2022-08-07T19:31:38.207Z,26.75
2022-08-07T19:34:00.749Z,26.62
2022-08-07T19:36:29.609Z,26.64
2022-08-07T19:38:59.067Z,26.47
2022-08-07T19:41:39.231Z,26.33
2022-08-07T19:44:21.070Z,26.20
2022-08-07T19:46:57.633Z,26.25
2022-08-07T19:49:58.044Z,26.11
2022-08-07T19:52:17.341Z,26.10
2022-08-07T19:54:56.401Z,26.05
2022-08-07T19:58:02.455Z,25.88
2022-08-07T20:00:29.726Z,25.76
2022-08-07T20:03:31.375Z,25.69
2022-08-07T20:06:00.466Z,25.57
2022-08-07T20:08:31.831Z,25.40
2022-08-07T20:11:03.784Z,25.34
2022-08-07T20:13:42.708Z,25.24
2022-08-07T20:16:22.409Z,25.18
2022-08-07T20:19:02.665Z,25.07
2022-08-07T20:21:46.635Z,25.07
2022-08-07T20:24:28.530Z,24.96
2022-08-07T20:26:58.622Z,24.93
2022-08-07T20:29:48.003Z,24.93
2022-08-07T20:32:22.981Z,24.85
2022-08-07T20:34:56.400Z,24.71
2022-08-07T20:37:25.590Z,24.62
2022-08-07T20:40:04.382Z,24.63
2022-08-07T20:42:33.877Z,24.59
2022-08-07T20:45:01.682Z,24.56
2022-08-07T20:47:56.303Z,24.42
2022-08-07T20:50:21.442Z,24.30
2022-08-07T20:52:51.615Z,24.22
2022-08-07T20:55:23.998Z,24.28
2022-08-07T20:58:19.692Z,24.30
2022-08-07T21:01:02.224Z,24.26
2022-08-07T21:03:29.594Z,24.29
2022-08-07T21:06:21.738Z,24.26
2022-08-07T21:09:13.743Z,24.19
2022-08-07T21:11:50.434Z,24.04
2022-08-07T21:14:33.855Z,23.93
2022-08-07T21:18:03.509Z,23.82
2022-08-07T21:20:04.776Z,23.69
2022-08-07T21:22:34.750Z,23.97
2022-08-07T21:25:56.397Z,24.05
2022-08-07T21:28:48.544Z,24.03
2022-08-07T21:31:49.956Z,23.75
2022-08-07T21:34:20.998Z,23.76
2022-08-07T21:36:59.583Z,23.68
2022-08-07T21:39:45.789Z,23.68
2022-08-07T21:42:46.793Z,23.62
2022-08-07T21:46:10.704Z,23.63
2022-08-07T21:48:56.427Z,23.35
2022-08-07T21:51:27.369Z,23.18
2022-08-07T21:54:33.106Z,23.03
2022-08-07T21:57:11.102Z,23.02
2022-08-07T22:00:23.017Z,22.95
2022-08-07T22:03:16.555Z,22.88
2022-08-07T22:05:51.281Z,22.75
2022-08-07T22:08:23.184Z,22.70
2022-08-07T22:10:54.967Z,22.73
2022-08-07T22:13:52.419Z,22.65
2022-08-07T22:16:44.519Z,22.65
2022-08-07T22:19:08.500Z,22.63
2022-08-07T22:22:02.628Z,22.57
2022-08-07T22:24:44.274Z,22.48
2022-08-07T22:27:17.899Z,22.47
2022-08-07T22:29:50.253Z,22.42
2022-08-07T22:32:26.668Z,22.42
2022-08-07T22:34:57.243Z,22.40
2022-08-07T22:38:03.647Z,22.31
2022-08-07T22:40:43.047Z,22.39
2022-08-07T22:43:12.571Z,22.29
2022-08-07T22:46:40.499Z,22.26
2022-08-07T22:49:02.407Z,22.14
2022-08-07T22:51:51.957Z,22.14
2022-08-07T22:54:55.229Z,22.08
2022-08-07T22:57:59.020Z,21.98
2022-08-07T23:00:36.111Z,21.98
2022-08-07T23:03:58.967Z,22.06
2022-08-07T23:06:51.615Z,22.09
2022-08-07T23:10:04.110Z,22.05
2022-08-07T23:12:40.221Z,22.12
2022-08-07T23:16:06.452Z,22.10
2022-08-07T23:19:11.270Z,22.01
2022-08-07T23:22:08.651Z,21.88
2022-08-07T23:24:50.694Z,21.70
2022-08-07T23:28:22.471Z,21.59
2022-08-07T23:30:45.840Z,21.55
2022-08-07T23:34:35.850Z,21.54
2022-08-07T23:37:20.099Z,21.53
2022-08-07T23:40:12.845Z,21.55
2022-08-07T23:42:42.551Z,21.53
2022-08-07T23:46:02.830Z,21.44
2022-08-07T23:49:15.475Z,21.27
2022-08-07T23:52:59.748Z,21.14
2022-08-07T23:54:46.090Z,20.99
2022-08-07T23:57:36.717Z,20.88
